Time;durP1;ratioP1;P1;durP2;ratioP2;P2;SDS_P1;SDS_P2;PMS_P1;PMS_P2;Temp;Humidity;BMP_temperature;BMP_pressure;BME280_temperature;BME280_humidity;BME280_pressure;Samples;Min_cycle;Max_cycle;Signal;HPM_P1;HPM_P2
2021/01/11 00:04:28;;;;;;;35.83;13.97;;;;;;;;;;10409555;28;20189;-73
2021/01/11 00:09:30;;;;;;;46.70;16.90;;;;;;;;;;10437213;28;20266;-78
2021/01/11 00:14:32;;;;;;;44.67;18.20;;;;;;;;;;10429946;28;20289;-72
2021/01/11 00:19:33;;;;;;;51.73;19.87;;;;;;;;;;10434956;28;20258;-76
2021/01/11 00:24:36;;;;;;;53.87;20.83;;;;;;;;;;10421188;28;20197;-77
2021/01/11 00:29:38;;;;;;;52.03;21.13;;;;;;;;;;10411391;28;20329;-74
2021/01/11 00:34:39;;;;;;;55.20;20.43;;;;;;;;;;10420276;28;20217;-76
2021/01/11 00:39:42;;;;;;;60.00;22.00;;;;;;;;;;10425290;28;20224;-74
2021/01/11 00:44:43;;;;;;;61.77;20.27;;;;;;;;;;10426435;28;20197;-74
2021/01/11 00:49:45;;;;;;;59.37;21.00;;;;;;;;;;10406943;28;20649;-74
2021/01/11 00:54:47;;;;;;;59.23;21.97;;;;;;;;;;10430483;28;20232;-78
2021/01/11 00:59:49;;;;;;;63.53;23.00;;;;;;;;;;10425643;28;20235;-74
2021/01/11 01:04:50;;;;;;;66.47;23.47;;;;;;;;;;10429918;28;20342;-75
2021/01/11 01:09:53;;;;;;;56.37;23.70;;;;;;;;;;10437428;28;20232;-74
2021/01/11 01:14:54;;;;;;;47.57;19.70;;;;;;;;;;10446621;28;20285;-74
2021/01/11 01:19:56;;;;;;;50.27;18.67;;;;;;;;;;10440507;28;20244;-75
2021/01/11 01:24:58;;;;;;;43.07;19.57;;;;;;;;;;10451769;28;20388;-73
2021/01/11 01:30:00;;;;;;;49.00;18.70;;;;;;;;;;10432654;28;20666;-75
2021/01/11 01:35:03;;;;;;;46.83;19.73;;;;;;;;;;10439748;28;20850;-74
2021/01/11 01:40:06;;;;;;;46.53;19.27;;;;;;;;;;10440078;28;20213;-74
2021/01/11 01:45:08;;;;;;;44.90;17.80;;;;;;;;;;10428647;28;20189;-74
2021/01/11 01:50:11;;;;;;;43.20;18.03;;;;;;;;;;10425899;28;20282;-74
2021/01/11 01:55:13;;;;;;;38.10;18.13;;;;;;;;;;10415622;28;20264;-75
2021/01/11 02:00:16;;;;;;;37.10;17.77;;;;;;;;;;10413564;28;20225;-74
2021/01/11 02:05:18;;;;;;;41.47;18.10;;;;;;;;;;10435952;28;20277;-74
2021/01/11 02:10:26;;;;;;;42.50;17.67;;;;;;;;;;10418279;28;20307;-76
2021/01/11 02:15:31;;;;;;;42.30;18.70;;;;;;;;;;10448092;28;20346;-75
2021/01/11 02:20:48;;;;;;;39.30;17.23;;;;;;;;;;10437704;28;20308;-77
2021/01/11 02:25:54;;;;;;;40.97;16.70;;;;;;;;;;10435309;28;20213;-76
2021/01/11 02:30:58;;;;;;;41.77;18.50;;;;;;;;;;10454974;28;20197;-74
2021/01/11 02:36:01;;;;;;;39.33;16.83;;;;;;;;;;10422424;28;20673;-74
2021/01/11 02:41:05;;;;;;;11.97;4.87;;;;;;;;;;10436397;28;20189;-75
2021/01/11 02:46:08;;;;;;;38.27;14.57;;;;;;;;;;10436925;28;20609;-75
2021/01/11 02:51:16;;;;;;;34.63;15.23;;;;;;;;;;10429123;28;20669;-75
2021/01/11 02:56:21;;;;;;;32.90;13.10;;;;;;;;;;10435810;28;20553;-75
2021/01/11 03:01:24;;;;;;;36.87;14.67;;;;;;;;;;10425539;28;20193;-76
2021/01/11 03:06:30;;;;;;;30.47;12.97;;;;;;;;;;10437568;28;20282;-77
2021/01/11 03:11:33;;;;;;;38.30;14.30;;;;;;;;;;10432687;28;20291;-75
2021/01/11 03:16:36;;;;;;;32.30;14.10;;;;;;;;;;10429067;28;20375;-74
2021/01/11 03:21:40;;;;;;;36.73;16.07;;;;;;;;;;10431971;28;20198;-74
2021/01/11 03:26:41;;;;;;;33.67;15.47;;;;;;;;;;10414270;28;20305;-75
2021/01/11 03:31:44;;;;;;;34.87;14.83;;;;;;;;;;10438908;28;20270;-73
2021/01/11 03:36:47;;;;;;;35.30;15.20;;;;;;;;;;10436192;28;20608;-76
2021/01/11 03:41:48;;;;;;;35.73;15.20;;;;;;;;;;10410603;28;20255;-75
2021/01/11 03:46:50;;;;;;;33.23;15.03;;;;;;;;;;10418490;28;20802;-75
2021/01/11 03:51:52;;;;;;;37.83;15.83;;;;;;;;;;10424348;28;20196;-74
2021/01/11 03:56:54;;;;;;;39.67;15.80;;;;;;;;;;10432831;28;20272;-77
2021/01/11 04:01:56;;;;;;;38.47;17.40;;;;;;;;;;10441205;28;20200;-75
2021/01/11 04:06:58;;;;;;;36.30;16.57;;;;;;;;;;10425581;28;20221;-74
2021/01/11 04:12:00;;;;;;;39.93;17.53;;;;;;;;;;10429933;28;20264;-75
2021/01/11 04:17:05;;;;;;;37.93;17.47;;;;;;;;;;10428485;28;20213;-75
2021/01/11 04:22:07;;;;;;;40.37;16.90;;;;;;;;;;10423977;28;20288;-74
2021/01/11 04:27:08;;;;;;;40.17;16.50;;;;;;;;;;10428781;28;20237;-76
2021/01/11 04:32:11;;;;;;;40.00;16.43;;;;;;;;;;10426945;28;20276;-77
2021/01/11 04:37:13;;;;;;;30.43;12.97;;;;;;;;;;10426686;28;20221;-75
2021/01/11 04:42:17;;;;;;;17.83;6.87;;;;;;;;;;10419091;28;20193;-75
2021/01/11 04:47:19;;;;;;;33.67;15.07;;;;;;;;;;10439156;28;20288;-74
2021/01/11 04:52:21;;;;;;;34.97;13.50;;;;;;;;;;10432288;28;20271;-75
2021/01/11 04:57:23;;;;;;;31.33;13.20;;;;;;;;;;10438825;28;20209;-76
2021/01/11 05:02:26;;;;;;;34.80;13.10;;;;;;;;;;10437455;28;20565;-75
2021/01/11 05:07:31;;;;;;;38.33;15.10;;;;;;;;;;10435812;28;20573;-73
2021/01/11 05:12:33;;;;;;;33.63;13.97;;;;;;;;;;10439469;28;20197;-74
2021/01/11 05:17:40;;;;;;;31.63;13.77;;;;;;;;;;10426698;28;20680;-74
2021/01/11 05:22:47;;;;;;;21.10;8.00;;;;;;;;;;10422982;28;20332;-74
2021/01/11 05:28:03;;;;;;;35.20;14.40;;;;;;;;;;10438642;28;20209;-74
2021/01/11 05:33:06;;;;;;;31.50;14.23;;;;;;;;;;10434065;28;20280;-74
2021/01/11 05:38:15;;;;;;;35.27;15.40;;;;;;;;;;10426218;28;20251;-73
2021/01/11 05:43:20;;;;;;;40.93;15.80;;;;;;;;;;10435269;28;20261;-74
2021/01/11 05:48:22;;;;;;;36.07;14.77;;;;;;;;;;10423399;28;20245;-75
2021/01/11 05:53:25;;;;;;;42.57;15.27;;;;;;;;;;10437596;28;20189;-74
2021/01/11 05:58:27;;;;;;;33.93;15.17;;;;;;;;;;10441889;28;20586;-74
2021/01/11 06:03:30;;;;;;;36.97;16.10;;;;;;;;;;10441379;28;20673;-74
2021/01/11 06:08:32;;;;;;;34.87;14.63;;;;;;;;;;10443312;28;20296;-75
2021/01/11 06:13:34;;;;;;;34.57;15.60;;;;;;;;;;10406397;28;20213;-73
2021/01/11 06:18:36;;;;;;;38.73;15.13;;;;;;;;;;10431907;28;20285;-73
2021/01/11 06:23:38;;;;;;;38.10;16.30;;;;;;;;;;10433370;28;20658;-75
2021/01/11 06:28:40;;;;;;;38.17;16.53;;;;;;;;;;10409057;28;20294;-76
2021/01/11 06:33:43;;;;;;;34.80;16.70;;;;;;;;;;10435687;28;20192;-75
2021/01/11 06:38:45;;;;;;;42.77;17.60;;;;;;;;;;10427601;28;20260;-75
2021/01/11 06:43:48;;;;;;;44.77;17.93;;;;;;;;;;10432452;28;20212;-75
2021/01/11 06:48:52;;;;;;;43.17;17.63;;;;;;;;;;10424644;28;20251;-76
2021/01/11 06:54:06;;;;;;;35.70;16.23;;;;;;;;;;10427290;28;20205;-76
2021/01/11 06:59:08;;;;;;;43.87;18.33;;;;;;;;;;10441068;28;20216;-75
2021/01/11 07:04:11;;;;;;;39.30;17.00;;;;;;;;;;10429297;28;20249;-76
2021/01/11 07:09:13;;;;;;;42.80;17.17;;;;;;;;;;10429033;28;20218;-75
2021/01/11 07:14:15;;;;;;;37.83;16.97;;;;;;;;;;10434393;28;20688;-75
2021/01/11 07:19:20;;;;;;;39.30;16.97;;;;;;;;;;10411240;28;20266;-77
2021/01/11 07:24:22;;;;;;;37.43;16.73;;;;;;;;;;10429208;28;20224;-74
2021/01/11 07:29:24;;;;;;;39.37;15.27;;;;;;;;;;10432953;28;20363;-76
2021/01/11 07:34:27;;;;;;;40.03;17.17;;;;;;;;;;10431757;28;20197;-75
2021/01/11 07:39:29;;;;;;;41.87;17.70;;;;;;;;;;10417227;28;20227;-75
2021/01/11 07:44:33;;;;;;;36.87;15.03;;;;;;;;;;10436440;28;20204;-74
2021/01/11 07:49:37;;;;;;;40.20;15.80;;;;;;;;;;10399428;28;20224;-75
2021/01/11 07:54:39;;;;;;;36.17;16.87;;;;;;;;;;10415247;28;20223;-75
2021/01/11 07:59:41;;;;;;;39.57;16.57;;;;;;;;;;10432565;28;20239;-75
2021/01/11 08:04:44;;;;;;;39.73;16.80;;;;;;;;;;10413251;28;20288;-76
2021/01/11 08:09:45;;;;;;;36.93;16.10;;;;;;;;;;10421067;28;20300;-75
2021/01/11 08:14:47;;;;;;;42.87;17.80;;;;;;;;;;10429036;28;20232;-76
2021/01/11 08:19:51;;;;;;;37.20;16.80;;;;;;;;;;10438009;28;20263;-75
2021/01/11 08:24:53;;;;;;;34.10;13.00;;;;;;;;;;10420289;28;20240;-73
2021/01/11 08:29:55;;;;;;;33.73;14.40;;;;;;;;;;10431575;28;20263;-74
2021/01/11 08:34:57;;;;;;;34.73;15.40;;;;;;;;;;10408501;28;20304;-75
2021/01/11 08:40:00;;;;;;;22.20;9.10;;;;;;;;;;10406930;28;20260;-74
2021/01/11 08:45:20;;;;;;;25.33;9.77;;;;;;;;;;10427654;28;20186;-76
2021/01/11 08:50:23;;;;;;;32.77;13.03;;;;;;;;;;10426832;28;20229;-75
2021/01/11 08:55:24;;;;;;;34.93;14.83;;;;;;;;;;10431878;28;20193;-74
2021/01/11 09:00:27;;;;;;;33.30;15.00;;;;;;;;;;10398054;28;20763;-74
2021/01/11 09:05:30;;;;;;;36.03;15.90;;;;;;;;;;10427936;28;20681;-75
2021/01/11 09:10:32;;;;;;;33.27;15.10;;;;;;;;;;10406529;28;20315;-75
2021/01/11 09:15:33;;;;;;;34.43;15.30;;;;;;;;;;10431214;28;20194;-74
2021/01/11 09:20:36;;;;;;;34.53;16.27;;;;;;;;;;10432119;28;20273;-74
2021/01/11 09:25:39;;;;;;;34.43;15.00;;;;;;;;;;10422607;28;20579;-76
2021/01/11 09:30:40;;;;;;;31.37;12.50;;;;;;;;;;10432238;28;20247;-76
2021/01/11 09:35:43;;;;;;;32.80;15.00;;;;;;;;;;10431297;28;20864;-76
2021/01/11 09:40:44;;;;;;;32.87;15.27;;;;;;;;;;10428452;28;20743;-75
2021/01/11 09:45:46;;;;;;;31.23;14.50;;;;;;;;;;10419576;28;20204;-75
2021/01/11 09:50:48;;;;;;;32.27;16.27;;;;;;;;;;10433634;28;20232;-76
2021/01/11 09:55:50;;;;;;;31.40;15.27;;;;;;;;;;10454195;28;20690;-75
2021/01/11 10:00:51;;;;;;;34.73;16.33;;;;;;;;;;10435310;28;20232;-72
2021/01/11 10:05:57;;;;;;;31.73;14.70;;;;;;;;;;10440526;28;20216;-74
2021/01/11 10:10:58;;;;;;;34.40;16.07;;;;;;;;;;10435111;28;20349;-75
2021/01/11 10:16:03;;;;;;;31.67;15.37;;;;;;;;;;10417193;28;20317;-75
2021/01/11 10:21:06;;;;;;;35.03;16.90;;;;;;;;;;10439670;28;20551;-74
2021/01/11 10:26:07;;;;;;;33.77;16.53;;;;;;;;;;10441686;28;20216;-74
2021/01/11 10:31:09;;;;;;;34.37;15.73;;;;;;;;;;10424516;28;20232;-75
2021/01/11 10:36:13;;;;;;;32.60;15.53;;;;;;;;;;10418370;28;20240;-75
2021/01/11 10:41:15;;;;;;;31.43;14.90;;;;;;;;;;10448577;28;20209;-75
2021/01/11 10:46:17;;;;;;;34.57;16.17;;;;;;;;;;10434542;28;20286;-75
2021/01/11 10:51:22;;;;;;;32.80;15.20;;;;;;;;;;10455539;28;20216;-74
2021/01/11 10:56:24;;;;;;;34.70;15.70;;;;;;;;;;10441182;28;20542;-75
2021/01/11 11:01:25;;;;;;;31.40;14.17;;;;;;;;;;10432167;28;20200;-74
2021/01/11 11:06:29;;;;;;;32.70;15.53;;;;;;;;;;10422392;28;20593;-73
2021/01/11 11:11:30;;;;;;;29.90;14.77;;;;;;;;;;10414637;28;20276;-74
2021/01/11 11:16:32;;;;;;;34.70;16.33;;;;;;;;;;10429784;28;20246;-74
2021/01/11 11:21:35;;;;;;;31.90;14.70;;;;;;;;;;10449036;28;20193;-75
2021/01/11 11:26:50;;;;;;;27.77;14.07;;;;;;;;;;10418758;28;20251;-74
2021/01/11 11:31:51;;;;;;;29.60;14.57;;;;;;;;;;10442432;28;20204;-73
2021/01/11 11:36:55;;;;;;;27.73;13.90;;;;;;;;;;10404115;28;20253;-76
2021/01/11 11:41:57;;;;;;;26.67;14.20;;;;;;;;;;10423482;28;20204;-72
2021/01/11 11:46:59;;;;;;;28.73;13.50;;;;;;;;;;10429845;28;20249;-74
2021/01/11 11:52:03;;;;;;;27.50;14.00;;;;;;;;;;10428204;28;20616;-77
2021/01/11 11:57:05;;;;;;;30.87;14.13;;;;;;;;;;10443189;28;20216;-74
2021/01/11 12:02:11;;;;;;;29.80;14.10;;;;;;;;;;10457164;28;20197;-75
2021/01/11 12:07:14;;;;;;;31.20;14.50;;;;;;;;;;10432353;28;20205;-75
2021/01/11 12:12:15;;;;;;;31.40;14.17;;;;;;;;;;10422775;28;20305;-75
2021/01/11 12:17:17;;;;;;;30.87;13.23;;;;;;;;;;10406985;28;20670;-74
2021/01/11 12:22:19;;;;;;;25.83;12.30;;;;;;;;;;10404919;28;20193;-74
2021/01/11 12:27:21;;;;;;;30.07;14.10;;;;;;;;;;10410442;28;20275;-74
2021/01/11 12:32:24;;;;;;;28.37;13.93;;;;;;;;;;10415621;28;20186;-75
2021/01/11 12:37:26;;;;;;;29.87;14.83;;;;;;;;;;10430007;28;20224;-75
2021/01/11 12:42:28;;;;;;;31.27;14.13;;;;;;;;;;10428823;28;20547;-73
2021/01/11 12:47:34;;;;;;;30.07;14.43;;;;;;;;;;10425438;28;20202;-76
2021/01/11 12:52:37;;;;;;;31.93;14.20;;;;;;;;;;10428531;28;20628;-74
2021/01/11 12:57:39;;;;;;;32.73;15.80;;;;;;;;;;10412831;28;20217;-74
2021/01/11 13:02:40;;;;;;;30.40;15.57;;;;;;;;;;10431652;28;20193;-75
2021/01/11 13:07:43;;;;;;;30.53;14.97;;;;;;;;;;10444346;28;21005;-73
2021/01/11 13:12:44;;;;;;;33.00;16.43;;;;;;;;;;10427983;28;20685;-74
2021/01/11 13:17:46;;;;;;;30.87;15.73;;;;;;;;;;10430866;28;20205;-75
2021/01/11 13:22:48;;;;;;;30.80;15.97;;;;;;;;;;10444987;28;20229;-75
2021/01/11 13:27:50;;;;;;;35.37;16.13;;;;;;;;;;10420066;28;20244;-74
2021/01/11 13:32:52;;;;;;;35.33;16.60;;;;;;;;;;10432422;28;20231;-74
2021/01/11 13:37:55;;;;;;;33.13;15.80;;;;;;;;;;10435809;28;20292;-75
2021/01/11 13:42:56;;;;;;;37.13;16.57;;;;;;;;;;10445860;28;20229;-75
2021/01/11 13:47:58;;;;;;;31.50;15.33;;;;;;;;;;10429659;28;20658;-74
2021/01/11 13:53:03;;;;;;;34.97;16.10;;;;;;;;;;10423479;28;20202;-75
2021/01/11 13:58:05;;;;;;;48.33;21.50;;;;;;;;;;10433355;28;20244;-74
2021/01/11 14:03:06;;;;;;;31.17;15.33;;;;;;;;;;10403189;28;20197;-74
2021/01/11 14:08:09;;;;;;;37.30;15.90;;;;;;;;;;10426938;28;20283;-75
2021/01/11 14:13:11;;;;;;;36.40;16.10;;;;;;;;;;10432082;28;21780;-74
2021/01/11 14:18:12;;;;;;;36.03;16.07;;;;;;;;;;10440012;28;20225;-74
2021/01/11 14:23:14;;;;;;;33.47;15.57;;;;;;;;;;10418615;28;20315;-74
2021/01/11 14:28:16;;;;;;;34.70;16.77;;;;;;;;;;10430386;28;20714;-75
2021/01/11 14:33:18;;;;;;;35.47;16.63;;;;;;;;;;10444349;28;20197;-76
2021/01/11 14:38:21;;;;;;;35.87;16.77;;;;;;;;;;10409062;28;20252;-74
2021/01/11 14:43:23;;;;;;;34.47;16.27;;;;;;;;;;10439745;28;20189;-75
2021/01/11 14:48:24;;;;;;;34.80;15.13;;;;;;;;;;10429498;28;20610;-75
2021/01/11 14:53:27;;;;;;;30.73;14.27;;;;;;;;;;10433973;28;20194;-75
2021/01/11 14:58:28;;;;;;;34.00;16.20;;;;;;;;;;10431652;28;20209;-74
2021/01/11 15:03:30;;;;;;;35.20;16.63;;;;;;;;;;10425055;28;20194;-74
2021/01/11 15:08:32;;;;;;;39.93;17.40;;;;;;;;;;10437379;28;20660;-76
2021/01/11 15:13:35;;;;;;;35.70;15.90;;;;;;;;;;10435481;28;20204;-74
2021/01/11 15:18:36;;;;;;;37.50;16.10;;;;;;;;;;10429425;28;20214;-77
2021/01/11 15:23:39;;;;;;;35.37;16.57;;;;;;;;;;10418611;28;20210;-75
2021/01/11 15:28:41;;;;;;;35.37;16.60;;;;;;;;;;10433539;28;20317;-74
2021/01/11 15:33:42;;;;;;;34.97;15.67;;;;;;;;;;10439463;28;20209;-76
2021/01/11 15:38:45;;;;;;;32.73;15.27;;;;;;;;;;10420362;28;20255;-76
2021/01/11 15:43:46;;;;;;;37.63;16.27;;;;;;;;;;10416304;28;20202;-76
2021/01/11 15:48:48;;;;;;;36.50;15.27;;;;;;;;;;10432365;28;20260;-74
2021/01/11 15:53:50;;;;;;;31.07;14.73;;;;;;;;;;10426382;28;20536;-74
2021/01/11 15:58:52;;;;;;;35.93;16.13;;;;;;;;;;10432075;28;20359;-74
2021/01/11 16:03:54;;;;;;;36.30;15.83;;;;;;;;;;10430832;28;20312;-74
2021/01/11 16:08:56;;;;;;;33.10;15.33;;;;;;;;;;10408500;28;20266;-73
2021/01/11 16:14:07;;;;;;;35.57;16.00;;;;;;;;;;10443889;28;20222;-76
2021/01/11 16:19:16;;;;;;;35.57;15.20;;;;;;;;;;10426930;28;20284;-74
2021/01/11 16:29:57;;;;;;;36.00;15.63;;;;;;;;;;10431329;28;20275;-75
2021/01/11 16:35:09;;;;;;;32.23;15.43;;;;;;;;;;10448518;28;20606;-76
2021/01/11 16:40:36;;;;;;;34.07;15.73;;;;;;;;;;10454290;28;20225;-76
2021/01/11 16:46:06;;;;;;;36.40;16.10;;;;;;;;;;10442045;28;20200;-76
2021/01/11 16:51:43;;;;;;;31.70;14.97;;;;;;;;;;10436522;28;20547;-76
2021/01/11 16:57:12;;;;;;;36.70;15.57;;;;;;;;;;10426406;28;20267;-75
2021/01/11 17:02:40;;;;;;;35.80;15.43;;;;;;;;;;10448444;28;20182;-75
2021/01/11 17:07:51;;;;;;;39.57;16.13;;;;;;;;;;10405360;28;20218;-77
2021/01/11 17:13:04;;;;;;;36.67;15.43;;;;;;;;;;10404787;28;20194;-75
2021/01/11 17:18:06;;;;;;;36.40;15.90;;;;;;;;;;10400486;28;20713;-77
2021/01/11 17:23:18;;;;;;;33.60;15.07;;;;;;;;;;10397951;28;20283;-76
2021/01/11 17:28:28;;;;;;;34.03;15.47;;;;;;;;;;10412472;28;20971;-75
2021/01/11 17:33:31;;;;;;;37.50;15.33;;;;;;;;;;10392182;28;20730;-76
2021/01/11 17:38:34;;;;;;;41.77;16.60;;;;;;;;;;10396209;28;20259;-75
2021/01/11 17:43:36;;;;;;;38.67;17.13;;;;;;;;;;10386894;28;20546;-75
2021/01/11 17:48:38;;;;;;;38.87;16.40;;;;;;;;;;10403187;28;20221;-74
2021/01/11 17:53:39;;;;;;;40.23;15.53;;;;;;;;;;10412747;28;20266;-75
2021/01/11 17:58:43;;;;;;;42.47;16.63;;;;;;;;;;10397950;28;20271;-75
2021/01/11 18:03:45;;;;;;;36.57;15.47;;;;;;;;;;10404513;28;20200;-73
2021/01/11 18:08:47;;;;;;;44.17;17.33;;;;;;;;;;10408424;28;20731;-73
2021/01/11 18:13:51;;;;;;;36.60;15.40;;;;;;;;;;10408685;28;20213;-74
2021/01/11 18:18:52;;;;;;;36.13;15.00;;;;;;;;;;10407256;28;20264;-73
2021/01/11 18:23:54;;;;;;;34.40;15.37;;;;;;;;;;10393611;28;20251;-74
2021/01/11 18:28:57;;;;;;;32.47;14.27;;;;;;;;;;10411615;28;20255;-73
2021/01/11 18:33:59;;;;;;;28.17;12.30;;;;;;;;;;10410959;28;20237;-73
2021/01/11 18:39:01;;;;;;;32.40;14.17;;;;;;;;;;10394698;28;20217;-73
2021/01/11 18:44:06;;;;;;;27.67;12.10;;;;;;;;;;10389127;28;20198;-74
2021/01/11 18:49:10;;;;;;;33.63;14.57;;;;;;;;;;10395520;28;20242;-74
2021/01/11 18:54:12;;;;;;;35.73;15.27;;;;;;;;;;10409089;28;20190;-73
2021/01/11 18:59:15;;;;;;;33.33;14.67;;;;;;;;;;10406914;28;20578;-74
2021/01/11 19:04:17;;;;;;;32.77;14.77;;;;;;;;;;10406429;28;20257;-75
2021/01/11 19:09:19;;;;;;;31.20;14.93;;;;;;;;;;10401225;28;20308;-75
2021/01/11 19:14:22;;;;;;;31.00;14.40;;;;;;;;;;10411116;28;20196;-74
2021/01/11 19:19:23;;;;;;;31.90;14.93;;;;;;;;;;10410224;28;20712;-75
2021/01/11 19:24:25;;;;;;;32.37;14.07;;;;;;;;;;10400779;28;20272;-75
2021/01/11 19:29:29;;;;;;;34.73;15.20;;;;;;;;;;10390176;28;20201;-74
2021/01/11 19:34:31;;;;;;;31.73;14.17;;;;;;;;;;10381706;28;20190;-75
2021/01/11 19:39:32;;;;;;;30.43;13.83;;;;;;;;;;10404460;28;20545;-75
2021/01/11 19:44:49;;;;;;;34.83;14.67;;;;;;;;;;10409782;28;20189;-75
2021/01/11 19:49:51;;;;;;;32.43;14.07;;;;;;;;;;10404512;28;20231;-75
2021/01/11 19:54:52;;;;;;;26.03;11.60;;;;;;;;;;10404497;28;20202;-74
2021/01/11 19:59:55;;;;;;;24.50;11.43;;;;;;;;;;10398377;28;20558;-74
2021/01/11 20:04:57;;;;;;;34.60;13.50;;;;;;;;;;10425739;28;20704;-74
2021/01/11 20:10:00;;;;;;;29.97;14.17;;;;;;;;;;10401025;28;20595;-74
2021/01/11 20:15:07;;;;;;;27.23;13.20;;;;;;;;;;10385647;28;20213;-75
2021/01/11 20:20:10;;;;;;;28.53;13.27;;;;;;;;;;10400094;28;20292;-74
2021/01/11 20:25:13;;;;;;;14.07;5.70;;;;;;;;;;10399132;28;20189;-75
2021/01/11 20:30:16;;;;;;;23.70;9.80;;;;;;;;;;10403819;28;20221;-75
2021/01/11 20:35:19;;;;;;;13.03;5.97;;;;;;;;;;10392596;28;20232;-75
2021/01/11 20:40:21;;;;;;;30.27;13.33;;;;;;;;;;10384512;28;20218;-76
2021/01/11 20:45:24;;;;;;;30.53;14.70;;;;;;;;;;10399809;28;20712;-73
2021/01/11 20:50:26;;;;;;;17.40;7.70;;;;;;;;;;10398394;28;20307;-75
2021/01/11 20:55:28;;;;;;;24.93;10.83;;;;;;;;;;10398088;28;20637;-73
2021/01/11 21:00:34;;;;;;;30.73;14.80;;;;;;;;;;10401973;28;20202;-76
2021/01/11 21:05:36;;;;;;;28.47;13.30;;;;;;;;;;10399894;28;20636;-75
2021/01/11 21:10:38;;;;;;;26.93;11.87;;;;;;;;;;10404051;28;20262;-75
2021/01/11 21:15:43;;;;;;;16.43;6.47;;;;;;;;;;10395193;28;20197;-73
2021/01/11 21:20:47;;;;;;;22.30;11.00;;;;;;;;;;10401922;28;20882;-76
2021/01/11 21:25:48;;;;;;;22.47;10.67;;;;;;;;;;10406836;28;20593;-74
2021/01/11 21:30:51;;;;;;;24.47;11.63;;;;;;;;;;10407012;28;20263;-73
2021/01/11 21:35:52;;;;;;;26.40;11.67;;;;;;;;;;10407044;28;20225;-75
2021/01/11 21:40:56;;;;;;;24.97;11.37;;;;;;;;;;10390098;28;20710;-77
2021/01/11 21:45:58;;;;;;;30.30;12.97;;;;;;;;;;10385567;28;20186;-74
2021/01/11 21:51:01;;;;;;;31.50;11.90;;;;;;;;;;10402554;28;20810;-76
2021/01/11 21:56:06;;;;;;;25.77;11.63;;;;;;;;;;10381847;28;20246;-74
2021/01/11 22:01:12;;;;;;;22.93;10.90;;;;;;;;;;10402935;28;20178;-76
2021/01/11 22:06:16;;;;;;;24.60;11.73;;;;;;;;;;10403939;28;20696;-74
2021/01/11 22:11:18;;;;;;;26.03;12.97;;;;;;;;;;10400438;28;20519;-75
2021/01/11 22:16:20;;;;;;;27.10;13.20;;;;;;;;;;10401168;28;20248;-73
2021/01/11 22:21:22;;;;;;;24.27;11.80;;;;;;;;;;10400838;28;20726;-75
2021/01/11 22:26:25;;;;;;;23.00;10.17;;;;;;;;;;10402228;28;20217;-76
2021/01/11 22:31:27;;;;;;;15.37;6.50;;;;;;;;;;10405931;28;20217;-76
2021/01/11 22:36:29;;;;;;;26.67;11.87;;;;;;;;;;10401374;28;20221;-76
2021/01/11 22:41:31;;;;;;;28.37;12.47;;;;;;;;;;10405594;28;20192;-76
2021/01/11 22:46:33;;;;;;;26.07;12.90;;;;;;;;;;10400897;28;20299;-77
2021/01/11 22:51:35;;;;;;;22.80;9.30;;;;;;;;;;10401960;28;20241;-75
2021/01/11 22:56:36;;;;;;;22.33;10.47;;;;;;;;;;10386784;28;20316;-74
2021/01/11 23:01:39;;;;;;;25.67;12.37;;;;;;;;;;10406728;28;20280;-73
2021/01/11 23:06:41;;;;;;;25.93;12.30;;;;;;;;;;10400183;28;20261;-73
2021/01/11 23:11:42;;;;;;;11.63;3.70;;;;;;;;;;10389379;28;20214;-74
2021/01/11 23:16:45;;;;;;;23.30;10.83;;;;;;;;;;10404633;28;20297;-73
2021/01/11 23:21:46;;;;;;;26.70;11.57;;;;;;;;;;10403467;28;20228;-74
2021/01/11 23:26:49;;;;;;;19.60;9.77;;;;;;;;;;10383589;28;20657;-74
2021/01/11 23:31:51;;;;;;;12.37;6.07;;;;;;;;;;10404093;28;20222;-75
2021/01/11 23:36:53;;;;;;;16.40;7.43;;;;;;;;;;10402367;28;20229;-76
2021/01/11 23:41:55;;;;;;;15.97;6.67;;;;;;;;;;10403457;28;20564;-77
2021/01/11 23:46:57;;;;;;;22.43;8.77;;;;;;;;;;10402760;28;20280;-72
2021/01/11 23:51:59;;;;;;;15.03;6.20;;;;;;;;;;10392199;28;20222;-75
2021/01/11 23:57:00;;;;;;;23.77;9.93;;;;;;;;;;10406201;28;20292;-76
